Time;durP1;ratioP1;P1;durP2;ratioP2;P2;SDS_P1;SDS_P2;PMS_P1;PMS_P2;Temp;Humidity;BMP_temperature;BMP_pressure;BME280_temperature;BME280_humidity;BME280_pressure;Samples;Min_cycle;Max_cycle;Signal;HPM_P1;HPM_P2
2022/04/20 00:01:56;;;;;;;5.82;4.15;;;6.70;1.00;;;;;;5008514;28;20112;-91
2022/04/20 00:04:22;;;;;;;5.95;4.40;;;6.80;1.00;;;;;;5009327;28;20098;-91
2022/04/20 00:06:48;;;;;;;8.82;4.60;;;6.80;1.00;;;;;;5021969;28;20113;-92
2022/04/20 00:09:13;;;;;;;6.90;4.60;;;6.80;1.00;;;;;;5026101;28;20677;-90
2022/04/20 00:11:39;;;;;;;8.35;4.22;;;6.80;1.00;;;;;;5007779;28;20037;-91
2022/04/20 00:14:05;;;;;;;7.82;4.80;;;6.80;1.00;;;;;;5002131;28;20057;-91
2022/04/20 00:16:31;;;;;;;6.28;4.47;;;6.80;1.00;;;;;;5006787;28;20071;-91
2022/04/20 00:18:56;;;;;;;5.95;4.68;;;6.80;1.00;;;;;;5007812;28;20029;-91
2022/04/20 00:21:22;;;;;;;7.90;4.45;;;6.80;1.00;;;;;;5008642;28;20040;-92
2022/04/20 00:23:48;;;;;;;7.15;4.78;;;6.80;1.00;;;;;;5015196;28;20110;-91
2022/04/20 00:26:14;;;;;;;7.53;5.10;;;6.80;1.00;;;;;;5008812;28;20040;-92
2022/04/20 00:28:40;;;;;;;6.22;4.53;;;6.80;1.00;;;;;;5013242;28;20342;-91
2022/04/20 00:31:09;;;;;;;7.93;4.80;;;6.70;1.00;;;;;;5009137;28;22175;-92
2022/04/20 00:33:35;;;;;;;7.78;4.88;;;6.70;1.00;;;;;;5008988;28;20226;-91
2022/04/20 00:36:02;;;;;;;8.73;4.78;;;6.70;1.00;;;;;;5005651;28;20037;-91
2022/04/20 00:38:28;;;;;;;6.40;4.75;;;6.70;1.00;;;;;;5009343;28;20041;-91
2022/04/20 00:40:54;;;;;;;6.85;4.85;;;6.70;1.00;;;;;;5009731;28;20116;-90
2022/04/20 00:43:19;;;;;;;6.22;4.82;;;6.70;1.00;;;;;;5010233;28;20144;-92
2022/04/20 00:45:46;;;;;;;6.22;4.70;;;6.70;1.00;;;;;;5011449;28;20041;-91
2022/04/20 00:48:12;;;;;;;6.35;5.07;;;6.70;1.00;;;;;;5006388;28;20510;-91
2022/04/20 00:50:43;;;;;;;8.57;4.57;;;6.60;99.90;;;;;;5018510;28;20052;-92
2022/04/20 00:53:09;;;;;;;7.82;5.20;;;6.70;1.00;;;;;;5019917;28;20048;-91
2022/04/20 00:55:35;;;;;;;9.32;4.88;;;6.60;1.00;;;;;;5010244;28;20033;-92
2022/04/20 00:58:04;;;;;;;6.05;4.53;;;6.60;1.00;;;;;;5012283;28;20044;-92
2022/04/20 01:00:31;;;;;;;6.88;4.50;;;6.50;1.00;;;;;;5008706;28;20032;-90
2022/04/20 01:02:57;;;;;;;6.63;4.60;;;6.60;1.00;;;;;;5006540;28;20063;-91
2022/04/20 01:05:23;;;;;;;9.73;5.30;;;6.50;99.90;;;;;;5005868;28;20121;-91
2022/04/20 01:07:49;;;;;;;5.80;4.40;;;6.50;99.90;;;;;;5025417;28;20049;-92
2022/04/20 01:10:15;;;;;;;6.28;4.15;;;6.40;1.00;;;;;;5009440;28;20055;-91
2022/04/20 01:12:45;;;;;;;5.43;4.30;;;6.40;1.00;;;;;;5005508;28;20076;-92
2022/04/20 01:15:14;;;;;;;6.78;4.50;;;6.40;99.90;;;;;;5045593;28;20185;-91
2022/04/20 01:17:40;;;;;;;5.22;4.28;;;6.40;1.00;;;;;;5027370;28;20120;-91
2022/04/20 01:20:13;;;;;;;5.95;4.60;;;6.40;1.00;;;;;;5024730;28;20044;-92
2022/04/20 01:22:41;;;;;;;6.85;4.75;;;6.30;1.00;;;;;;5029146;28;20078;-92
2022/04/20 01:25:07;;;;;;;6.90;4.57;;;6.40;99.90;;;;;;5034950;28;20040;-92
2022/04/20 01:27:35;;;;;;;6.55;4.45;;;6.30;1.00;;;;;;5031128;28;20041;-92
2022/04/20 01:30:00;;;;;;;7.10;4.47;;;6.30;1.00;;;;;;5026142;28;20591;-92
2022/04/20 01:32:29;;;;;;;5.43;4.65;;;6.30;1.00;;;;;;5030296;28;20064;-91
2022/04/20 01:34:55;;;;;;;8.00;4.68;;;6.20;1.00;;;;;;5046612;28;20041;-92
2022/04/20 01:37:21;;;;;;;5.20;4.10;;;6.20;1.00;;;;;;5035741;28;20028;-92
2022/04/20 01:39:47;;;;;;;6.68;4.55;;;6.10;1.00;;;;;;5017521;28;20078;-91
2022/04/20 01:42:13;;;;;;;6.60;4.22;;;6.10;1.00;;;;;;5032103;28;20147;-92
2022/04/20 01:44:38;;;;;;;6.80;4.68;;;6.10;1.00;;;;;;5032563;28;20036;-92
2022/04/20 01:47:04;;;;;;;5.38;4.03;;;6.00;1.00;;;;;;5037968;28;20230;-91
2022/04/20 01:49:30;;;;;;;6.55;4.93;;;6.00;1.00;;;;;;5045959;28;20139;-92
2022/04/20 01:51:56;;;;;;;6.22;4.53;;;6.00;1.00;;;;;;5027162;28;20063;-91
2022/04/20 01:54:22;;;;;;;6.43;4.72;;;5.90;1.00;;;;;;5033042;28;20249;-91
2022/04/20 01:56:51;;;;;;;6.43;4.78;;;5.90;1.00;;;;;;5029591;28;20503;-91
2022/04/20 01:59:17;;;;;;;6.47;4.63;;;5.90;1.00;;;;;;5045020;28;20111;-91
2022/04/20 02:04:27;;;;;;;7.32;4.72;;;5.80;1.00;;;;;;5049688;28;20480;-91
2022/04/20 02:06:53;;;;;;;9.45;5.32;;;5.80;1.00;;;;;;5029003;28;20551;-92
2022/04/20 02:09:19;;;;;;;7.43;4.68;;;5.70;1.00;;;;;;5028254;28;20063;-92
2022/04/20 02:11:45;;;;;;;7.78;4.53;;;5.70;1.00;;;;;;5036441;28;20048;-91
2022/04/20 02:14:11;;;;;;;7.60;5.10;;;5.70;1.00;;;;;;5030811;28;20048;-92
2022/04/20 02:16:37;;;;;;;6.18;4.85;;;5.60;1.00;;;;;;5036932;28;20105;-92
2022/04/20 02:19:03;;;;;;;6.15;4.65;;;5.60;1.00;;;;;;5036509;28;20039;-90
2022/04/20 02:21:30;;;;;;;8.45;5.00;;;5.60;1.00;;;;;;5062242;28;20037;-90
2022/04/20 02:23:55;;;;;;;7.15;5.10;;;5.50;1.00;;;;;;5028387;28;20037;-91
2022/04/20 02:26:21;;;;;;;6.68;4.97;;;5.50;1.00;;;;;;5058524;28;20126;-91
2022/04/20 02:28:47;;;;;;;6.55;4.72;;;5.50;1.00;;;;;;5033934;28;20040;-91
2022/04/20 02:31:14;;;;;;;7.35;4.80;;;5.50;1.00;;;;;;5034849;28;20044;-90
2022/04/20 02:33:40;;;;;;;8.05;5.10;;;5.50;1.00;;;;;;5063814;28;20051;-91
2022/04/20 02:36:06;;;;;;;6.70;4.90;;;5.50;1.00;;;;;;5061956;28;20032;-91
2022/04/20 02:38:34;;;;;;;6.55;4.97;;;5.50;1.00;;;;;;5038994;28;20039;-90
2022/04/20 02:40:59;;;;;;;9.00;5.25;;;5.50;1.00;;;;;;5038801;28;20113;-91
2022/04/20 02:43:25;;;;;;;8.52;4.75;;;5.50;1.00;;;;;;5041444;28;20036;-91
2022/04/20 02:45:51;;;;;;;6.40;4.95;;;5.50;1.00;;;;;;5035065;28;20039;-91
2022/04/20 02:48:16;;;;;;;8.75;4.95;;;5.50;1.00;;;;;;5060049;28;20067;-90
2022/04/20 02:50:43;;;;;;;7.10;5.07;;;5.40;1.00;;;;;;5038777;28;20040;-91
2022/04/20 02:53:09;;;;;;;8.18;5.35;;;5.40;1.00;;;;;;5038831;28;20055;-90
2022/04/20 02:55:34;;;;;;;6.88;5.00;;;5.40;1.00;;;;;;5033206;28;20040;-91
2022/04/20 02:58:00;;;;;;;6.38;4.43;;;5.30;1.00;;;;;;5033777;28;20040;-92
2022/04/20 03:00:28;;;;;;;9.15;5.13;;;5.40;1.00;;;;;;5054473;28;20046;-91
2022/04/20 03:02:54;;;;;;;6.00;4.80;;;5.40;1.00;;;;;;5036248;28;20044;-91
2022/04/20 03:05:20;;;;;;;8.65;4.90;;;5.30;1.00;;;;;;5035394;28;20112;-90
2022/04/20 03:07:45;;;;;;;7.20;4.60;;;5.30;1.00;;;;;;5055838;28;20037;-91
2022/04/20 03:10:11;;;;;;;7.28;4.72;;;5.20;1.00;;;;;;5036240;28;20108;-90
2022/04/20 03:12:38;;;;;;;7.38;4.75;;;5.20;1.00;;;;;;5037199;28;20349;-92
2022/04/20 03:15:04;;;;;;;7.72;5.53;;;5.10;1.00;;;;;;5058427;28;20049;-92
2022/04/20 03:17:32;;;;;;;7.53;5.65;;;5.00;1.00;;;;;;5052525;28;20409;-91
2022/04/20 03:19:58;;;;;;;6.18;5.00;;;5.00;5.70;;;;;;5034471;28;20230;-90
2022/04/20 03:22:24;;;;;;;7.10;4.97;;;4.90;18.30;;;;;;5037473;28;20094;-91
2022/04/20 03:24:49;;;;;;;7.65;5.22;;;4.90;30.10;;;;;;5029668;28;20529;-91
2022/04/20 03:27:15;;;;;;;7.43;5.30;;;4.90;32.60;;;;;;5052973;28;20145;-90
2022/04/20 03:29:41;;;;;;;8.15;5.15;;;4.80;25.70;;;;;;5054378;28;20033;-91
2022/04/20 03:32:15;;;;;;;10.05;5.63;;;4.80;28.40;;;;;;5055319;28;20280;-90
2022/04/20 03:34:41;;;;;;;8.35;5.38;;;4.80;70.50;;;;;;5057390;28;20059;-91
2022/04/20 03:37:09;;;;;;;8.90;5.93;;;4.80;82.50;;;;;;5034604;28;20044;-91
2022/04/20 03:39:35;;;;;;;8.18;5.13;;;4.70;63.90;;;;;;5046205;28;20033;-92
2022/04/20 03:42:05;;;;;;;6.80;5.18;;;4.70;74.30;;;;;;5035691;28;20084;-91
2022/04/20 03:44:31;;;;;;;7.55;5.13;;;4.70;79.40;;;;;;5035433;28;20609;-90
2022/04/20 03:46:57;;;;;;;6.57;4.95;;;4.60;88.90;;;;;;5031303;28;20085;-92
2022/04/20 03:49:23;;;;;;;9.20;6.00;;;4.60;83.70;;;;;;5037817;28;20040;-90
2022/04/20 03:51:49;;;;;;;8.05;5.07;;;4.50;99.90;;;;;;5036419;28;20094;-91
2022/04/20 03:54:15;;;;;;;7.80;5.72;;;4.50;99.90;;;;;;5030048;28;20044;-91
2022/04/20 03:59:25;;;;;;;8.02;5.80;;;4.50;99.90;;;;;;5048562;28;20190;-92
2022/04/20 04:01:51;;;;;;;9.90;5.63;;;4.50;99.90;;;;;;5056353;28;20126;-91
2022/04/20 04:04:18;;;;;;;8.35;5.80;;;4.50;99.90;;;;;;5030331;28;20466;-90
2022/04/20 04:06:44;;;;;;;9.73;6.22;;;4.40;99.90;;;;;;5031116;28;20135;-91
2022/04/20 04:09:10;;;;;;;8.35;5.93;;;4.40;99.90;;;;;;5030313;28;20119;-91
2022/04/20 04:11:35;;;;;;;9.52;6.38;;;4.40;99.90;;;;;;5049373;28;20513;-90
2022/04/20 04:14:05;;;;;;;9.35;6.05;;;4.40;99.90;;;;;;5056536;28;20128;-91
2022/04/20 04:16:36;;;;;;;9.30;6.32;;;4.40;99.90;;;;;;5036625;28;20102;-91
2022/04/20 04:19:05;;;;;;;8.18;6.35;;;4.40;99.90;;;;;;5037517;28;20495;-92
2022/04/20 04:21:32;;;;;;;9.23;5.97;;;4.40;99.90;;;;;;5061182;28;20116;-91
2022/04/20 04:23:58;;;;;;;8.65;6.20;;;4.40;99.90;;;;;;5042146;28;20233;-91
2022/04/20 04:26:25;;;;;;;10.32;7.07;;;4.40;99.90;;;;;;5032521;28;20113;-91
2022/04/20 04:28:51;;;;;;;8.10;6.07;;;4.40;99.90;;;;;;5033654;28;20123;-92
2022/04/20 04:31:17;;;;;;;8.63;6.35;;;4.40;99.90;;;;;;5036063;28;20146;-91
2022/04/20 04:33:49;;;;;;;10.05;6.70;;;4.40;99.90;;;;;;5034701;28;20040;-91
2022/04/20 04:36:14;;;;;;;8.98;6.20;;;4.40;99.90;;;;;;5046721;28;20286;-90
2022/04/20 04:38:40;;;;;;;9.00;6.22;;;4.40;99.90;;;;;;5033473;28;20067;-91
2022/04/20 04:41:05;;;;;;;8.43;6.22;;;4.40;99.90;;;;;;5058380;28;20116;-91
2022/04/20 04:43:31;;;;;;;9.48;6.40;;;4.40;99.90;;;;;;5036067;28;20040;-91
2022/04/20 04:48:48;;;;;;;12.85;6.50;;;4.40;99.90;;;;;;5046266;28;20047;-91
2022/04/20 04:51:15;;;;;;;7.57;6.32;;;4.40;99.90;;;;;;5027240;28;20187;-93
2022/04/20 04:53:41;;;;;;;9.50;6.40;;;4.40;99.90;;;;;;5033170;28;20147;-91
2022/04/20 04:56:06;;;;;;;14.77;5.97;;;4.40;99.90;;;;;;5034861;28;20132;-91
2022/04/20 04:58:32;;;;;;;8.82;6.13;;;4.40;99.90;;;;;;5036156;28;20031;-91
2022/04/20 05:00:58;;;;;;;10.55;6.03;;;4.50;99.90;;;;;;5033230;28;20048;-91
2022/04/20 05:03:24;;;;;;;8.10;6.03;;;4.50;99.90;;;;;;5060048;28;20506;-93
2022/04/20 05:05:50;;;;;;;8.25;6.00;;;4.50;99.90;;;;;;5062279;28;20117;-92
2022/04/20 05:08:16;;;;;;;8.73;5.75;;;4.60;99.90;;;;;;5034855;28;20055;-91
2022/04/20 05:10:42;;;;;;;8.20;5.97;;;4.60;99.90;;;;;;5063307;28;20028;-91
2022/04/20 05:13:08;;;;;;;8.23;5.78;;;4.70;99.90;;;;;;5052035;28;20044;-91
2022/04/20 05:15:34;;;;;;;8.50;6.10;;;4.80;99.90;;;;;;5028195;28;20306;-91
2022/04/20 05:18:01;;;;;;;7.18;5.72;;;4.80;99.90;;;;;;5028099;28;20294;-93
2022/04/20 05:20:27;;;;;;;8.65;5.55;;;4.90;99.90;;;;;;5031254;28;20029;-92
2022/04/20 05:22:52;;;;;;;7.63;5.63;;;5.10;99.90;;;;;;5028684;28;20036;-92
2022/04/20 05:25:21;;;;;;;9.25;5.47;;;5.10;99.90;;;;;;5030464;28;20510;-92
2022/04/20 05:27:47;;;;;;;8.25;5.90;;;5.20;99.90;;;;;;5025213;28;20044;-91
2022/04/20 05:30:14;;;;;;;7.30;5.85;;;5.30;99.90;;;;;;5044354;28;20118;-91
2022/04/20 05:32:41;;;;;;;9.90;5.57;;;5.60;99.90;;;;;;5046203;28;20110;-92
2022/04/20 05:35:10;;;;;;;10.23;5.43;;;5.60;99.90;;;;;;5032139;28;20047;-92
2022/04/20 05:43:05;;;;;;;8.60;5.72;;;6.00;91.40;;;;;;5045579;28;20213;-92
2022/04/20 05:45:30;;;;;;;7.50;5.47;;;6.10;59.70;;;;;;5034449;28;20143;-91
2022/04/20 05:47:58;;;;;;;8.38;6.00;;;6.30;69.50;;;;;;5024879;28;20039;-93
2022/04/20 05:50:24;;;;;;;8.65;5.78;;;6.40;61.90;;;;;;5028858;28;20037;-92
2022/04/20 05:52:50;;;;;;;7.22;5.38;;;6.50;45.00;;;;;;5027662;28;20068;-90
2022/04/20 05:55:17;;;;;;;6.80;5.53;;;6.70;14.40;;;;;;5028377;28;20405;-92
2022/04/20 05:57:42;;;;;;;9.85;5.78;;;6.80;2.80;;;;;;5027669;28;20036;-93
2022/04/20 06:00:09;;;;;;;9.80;5.93;;;6.90;11.50;;;;;;5026615;28;20037;-91
2022/04/20 06:02:34;;;;;;;8.63;5.30;;;7.00;1.00;;;;;;5031655;28;20040;-91
2022/04/20 06:05:01;;;;;;;7.70;5.20;;;7.10;1.00;;;;;;5023862;28;20043;-91
2022/04/20 06:07:27;;;;;;;6.32;5.15;;;7.30;1.00;;;;;;5026151;28;20051;-91
2022/04/20 06:09:53;;;;;;;13.70;5.35;;;7.40;1.00;;;;;;5033045;28;20043;-86
2022/04/20 06:12:21;;;;;;;6.05;5.32;;;7.50;1.00;;;;;;5049940;28;20037;-86
2022/04/20 06:14:47;;;;;;;8.43;5.25;;;7.60;1.00;;;;;;5023569;28;20044;-85
2022/04/20 06:17:14;;;;;;;7.65;5.32;;;7.70;1.00;;;;;;5032039;28;20056;-85
2022/04/20 06:19:40;;;;;;;8.35;5.80;;;7.80;1.00;;;;;;5036666;28;20121;-85
2022/04/20 06:22:05;;;;;;;8.55;5.80;;;7.90;1.00;;;;;;5029417;28;20388;-86
2022/04/20 06:24:31;;;;;;;10.27;5.68;;;8.00;1.00;;;;;;5031141;28;20047;-86
2022/04/20 06:26:57;;;;;;;8.68;5.30;;;8.10;1.00;;;;;;5031297;28;20040;-86
2022/04/20 06:29:23;;;;;;;7.70;5.60;;;8.20;1.00;;;;;;5027798;28;20039;-86
2022/04/20 06:31:51;;;;;;;7.45;5.43;;;8.20;1.00;;;;;;5030835;28;20029;-86
2022/04/20 06:34:17;;;;;;;9.57;5.38;;;8.30;1.00;;;;;;5027312;28;20036;-86
2022/04/20 06:36:43;;;;;;;5.93;5.03;;;8.40;1.00;;;;;;5043665;28;20127;-86
2022/04/20 06:39:08;;;;;;;5.93;4.78;;;8.40;1.00;;;;;;5022254;28;20467;-86
2022/04/20 06:41:34;;;;;;;8.40;5.60;;;8.50;1.00;;;;;;5045562;28;20043;-86
2022/04/20 06:44:00;;;;;;;8.45;5.47;;;8.60;1.00;;;;;;5042256;28;20032;-86
2022/04/20 06:46:26;;;;;;;8.57;5.68;;;8.80;1.00;;;;;;5025206;28;20044;-86
2022/04/20 06:48:51;;;;;;;8.07;5.55;;;8.90;1.00;;;;;;5031519;28;20041;-85
2022/04/20 06:51:17;;;;;;;7.25;5.60;;;8.80;99.90;;;;;;5021058;28;20047;-85
2022/04/20 06:59:14;;;;;;;7.20;5.47;;;9.00;99.90;;;;;;5041987;28;20036;-85
2022/04/20 07:01:40;;;;;;;6.40;5.15;;;9.10;99.90;;;;;;5021649;28;20294;-86
2022/04/20 07:04:06;;;;;;;7.43;5.13;;;9.20;99.90;;;;;;5021217;28;20063;-86
2022/04/20 07:06:32;;;;;;;6.57;5.18;;;9.20;99.90;;;;;;5028907;28;20036;-86
2022/04/20 07:09:00;;;;;;;7.63;5.35;;;9.20;99.90;;;;;;5025734;28;20036;-85
2022/04/20 07:11:28;;;;;;;11.02;4.95;;;9.30;99.90;;;;;;5025957;28;20039;-87
2022/04/20 07:13:55;;;;;;;6.60;5.00;;;9.40;99.90;;;;;;5043781;28;20044;-86
2022/04/20 07:16:21;;;;;;;7.55;4.70;;;9.50;99.90;;;;;;5044298;28;20137;-86
2022/04/20 07:18:46;;;;;;;7.00;4.85;;;9.60;99.90;;;;;;5027201;28;20092;-86
2022/04/20 07:21:12;;;;;;;6.40;4.85;;;9.70;99.90;;;;;;5025327;28;20033;-86
2022/04/20 07:23:38;;;;;;;5.15;4.22;;;9.80;99.90;;;;;;5020365;28;20063;-86
2022/04/20 07:26:04;;;;;;;9.13;4.68;;;9.90;99.90;;;;;;5015907;28;20487;-86
2022/04/20 07:28:31;;;;;;;5.63;4.63;;;9.90;99.90;;;;;;5063141;28;20527;-86
2022/04/20 07:30:57;;;;;;;6.35;4.28;;;10.00;99.90;;;;;;5028762;28;20147;-85
2022/04/20 07:33:26;;;;;;;8.65;4.13;;;10.10;99.90;;;;;;5040797;28;20511;-85
2022/04/20 07:35:52;;;;;;;5.25;3.88;;;10.10;99.90;;;;;;5025430;28;22313;-86
2022/04/20 07:38:18;;;;;;;5.32;3.70;;;10.20;99.90;;;;;;5023041;28;20136;-85
2022/04/20 07:40:44;;;;;;;6.20;4.28;;;10.20;99.90;;;;;;5014408;28;20307;-86
2022/04/20 07:43:09;;;;;;;8.68;4.20;;;10.40;99.90;;;;;;5017739;28;20503;-86
2022/04/20 07:45:35;;;;;;;7.07;3.88;;;10.60;99.90;;;;;;5025108;28;20028;-86
2022/04/20 07:48:01;;;;;;;8.13;4.13;;;10.70;99.90;;;;;;5040936;28;20068;-86
2022/04/20 07:50:26;;;;;;;7.20;4.05;;;10.70;99.90;;;;;;5017844;28;20564;-86
2022/04/20 07:52:56;;;;;;;6.28;3.90;;;10.90;99.90;;;;;;5043310;28;20087;-86
2022/04/20 07:55:25;;;;;;;4.47;3.38;;;10.90;99.90;;;;;;5025318;28;20096;-86
2022/04/20 07:57:53;;;;;;;4.10;3.67;;;11.00;99.90;;;;;;5049815;28;20032;-87
2022/04/20 08:00:20;;;;;;;5.20;3.50;;;11.10;99.90;;;;;;5044106;28;20068;-87
2022/04/20 08:02:50;;;;;;;6.57;3.55;;;11.10;99.90;;;;;;5023436;28;20104;-86
2022/04/20 08:05:19;;;;;;;7.97;3.55;;;11.20;99.90;;;;;;5029697;28;20147;-87
2022/04/20 08:07:45;;;;;;;5.22;3.28;;;11.30;99.90;;;;;;5042714;28;20047;-85
2022/04/20 08:10:12;;;;;;;6.68;3.35;;;11.50;99.90;;;;;;5025838;28;20125;-86
2022/04/20 08:12:47;;;;;;;4.78;3.47;;;11.60;99.90;;;;;;5033331;28;20427;-86
2022/04/20 08:15:13;;;;;;;7.20;3.67;;;11.70;99.90;;;;;;5023203;28;20088;-86
2022/04/20 08:17:41;;;;;;;5.15;3.63;;;11.80;99.90;;;;;;4999423;28;20121;-87
2022/04/20 08:20:08;;;;;;;5.43;3.70;;;11.80;99.90;;;;;;4995522;28;20040;-86
2022/04/20 08:22:42;;;;;;;4.95;3.10;;;12.00;99.90;;;;;;5015064;28;20029;-86
2022/04/20 08:25:10;;;;;;;4.07;2.80;;;12.10;99.90;;;;;;5008198;28;20041;-86
2022/04/20 08:27:36;;;;;;;6.40;3.03;;;12.10;99.90;;;;;;5000757;28;20315;-86
2022/04/20 08:30:07;;;;;;;4.30;2.75;;;12.30;99.90;;;;;;5023547;28;20063;-87
2022/04/20 08:32:33;;;;;;;3.58;2.70;;;12.30;99.90;;;;;;5018081;28;20059;-86
2022/04/20 08:34:59;;;;;;;3.17;2.30;;;12.40;99.90;;;;;;5015399;28;20049;-85
2022/04/20 08:37:25;;;;;;;5.63;2.55;;;12.50;99.90;;;;;;5016378;28;20036;-85
2022/04/20 08:39:51;;;;;;;3.63;2.30;;;12.60;99.90;;;;;;5019787;28;20571;-85
2022/04/20 08:42:20;;;;;;;3.72;2.42;;;12.70;99.90;;;;;;5025359;28;20487;-85
2022/04/20 08:44:51;;;;;;;2.70;2.20;;;12.70;99.90;;;;;;5005276;28;20098;-85
2022/04/20 08:47:22;;;;;;;3.17;2.10;;;12.90;99.90;;;;;;5012357;28;20041;-86
2022/04/20 08:49:50;;;;;;;2.70;2.13;;;12.90;99.90;;;;;;5023990;28;20187;-86
2022/04/20 08:52:39;;;;;;;3.95;2.28;;;13.10;99.90;;;;;;5035624;28;20053;-85
2022/04/20 08:55:09;;;;;;;2.97;2.17;;;13.30;99.90;;;;;;5005754;28;20045;-86
2022/04/20 08:57:36;;;;;;;2.83;2.40;;;13.40;99.90;;;;;;5022295;28;20121;-86
2022/04/20 09:00:04;;;;;;;3.88;2.15;;;13.40;99.90;;;;;;5016637;28;20315;-86
2022/04/20 09:02:31;;;;;;;5.35;2.05;;;13.70;99.90;;;;;;5005389;28;20031;-86
2022/04/20 09:04:57;;;;;;;4.32;2.47;;;13.70;99.90;;;;;;4997665;28;20591;-86
2022/04/20 09:07:24;;;;;;;3.75;2.10;;;13.80;99.90;;;;;;5015687;28;20084;-85
2022/04/20 09:09:50;;;;;;;5.13;1.90;;;13.80;99.90;;;;;;5025306;28;20311;-85
2022/04/20 09:12:18;;;;;;;2.47;1.90;;;13.90;99.90;;;;;;5028305;28;20048;-86
2022/04/20 09:14:48;;;;;;;2.08;1.70;;;14.00;99.90;;;;;;5016038;28;20052;-86
2022/04/20 09:17:19;;;;;;;2.38;1.90;;;14.00;99.90;;;;;;5024189;28;20039;-86
2022/04/20 09:19:46;;;;;;;3.90;1.90;;;14.20;99.90;;;;;;5020096;28;20055;-85
2022/04/20 09:22:22;;;;;;;2.75;2.03;;;14.40;99.90;;;;;;5020264;28;20292;-86
2022/04/20 09:25:08;;;;;;;4.22;1.83;;;14.50;99.90;;;;;;5023071;28;20037;-85
2022/04/20 09:27:39;;;;;;;3.03;2.05;;;14.80;99.90;;;;;;5040096;28;20045;-86
2022/04/20 09:30:14;;;;;;;3.55;1.70;;;14.80;99.90;;;;;;5020623;28;20127;-86
2022/04/20 09:32:42;;;;;;;2.03;1.40;;;14.70;99.90;;;;;;5022621;28;20086;-86
2022/04/20 09:35:13;;;;;;;2.92;2.10;;;14.80;99.90;;;;;;5040612;28;20041;-86
2022/04/20 09:37:41;;;;;;;4.07;1.85;;;15.00;99.90;;;;;;5017438;28;20033;-84
2022/04/20 09:40:12;;;;;;;2.15;1.60;;;14.70;99.90;;;;;;5017602;28;20047;-85
2022/04/20 09:43:02;;;;;;;4.53;1.80;;;15.10;99.90;;;;;;5011475;28;20685;-86
2022/04/20 09:45:28;;;;;;;2.47;1.70;;;15.20;99.90;;;;;;5032581;28;20410;-85
2022/04/20 09:50:43;;;;;;;4.60;1.90;;;15.30;99.90;;;;;;5030168;28;20052;-86
2022/04/20 09:53:12;;;;;;;3.00;1.80;;;15.20;99.90;;;;;;5025709;28;20056;-86
2022/04/20 09:55:41;;;;;;;2.60;1.85;;;15.00;99.90;;;;;;5011034;28;20510;-86
2022/04/20 09:58:18;;;;;;;2.90;1.80;;;15.30;99.90;;;;;;5020120;28;20063;-86
2022/04/20 10:00:49;;;;;;;2.97;1.73;;;15.40;99.90;;;;;;5012440;28;20452;-87
2022/04/20 10:03:29;;;;;;;2.85;1.70;;;15.70;99.90;;;;;;5016973;28;20053;-86
2022/04/20 10:05:56;;;;;;;2.15;1.75;;;15.50;99.90;;;;;;5038390;28;20032;-85
2022/04/20 10:08:23;;;;;;;4.28;1.70;;;15.70;99.90;;;;;;5018438;28;20409;-86
2022/04/20 10:10:50;;;;;;;2.75;1.67;;;15.70;99.90;;;;;;5021479;28;20044;-86
2022/04/20 10:13:17;;;;;;;2.30;2.00;;;15.70;99.90;;;;;;5021935;28;20076;-86
2022/04/20 10:18:30;;;;;;;4.20;1.58;;;15.70;99.90;;;;;;5036813;28;20494;-85
2022/04/20 10:20:58;;;;;;;3.25;2.00;;;16.00;99.90;;;;;;5017462;28;20515;-86
2022/04/20 10:23:25;;;;;;;2.22;1.70;;;16.10;99.90;;;;;;5021136;28;20045;-86
2022/04/20 10:25:53;;;;;;;2.25;1.58;;;16.00;99.90;;;;;;5021735;28;20379;-85
2022/04/20 10:28:29;;;;;;;3.28;1.80;;;15.90;99.90;;;;;;5022494;28;20044;-86
2022/04/20 10:31:19;;;;;;;6.18;1.90;;;16.00;99.90;;;;;;5037842;28;20469;-86
2022/04/20 10:33:49;;;;;;;3.83;1.73;;;16.20;99.90;;;;;;5037991;28;20044;-85
2022/04/20 10:36:29;;;;;;;2.10;1.60;;;16.30;99.90;;;;;;5020713;28;20282;-86
2022/04/20 10:39:22;;;;;;;2.80;1.73;;;16.40;99.90;;;;;;5036400;28;20460;-85
2022/04/20 10:42:14;;;;;;;4.38;2.17;;;16.50;99.90;;;;;;5049832;28;20033;-86
2022/04/20 10:44:55;;;;;;;2.78;2.13;;;16.80;99.90;;;;;;5038359;28;20040;-85
2022/04/20 10:47:28;;;;;;;3.58;2.10;;;16.80;99.90;;;;;;5039221;28;20037;-86
2022/04/20 10:50:14;;;;;;;3.22;1.80;;;17.00;99.90;;;;;;5020875;28;20048;-87
2022/04/20 10:52:44;;;;;;;4.28;1.80;;;16.90;99.90;;;;;;5020523;28;20047;-85
2022/04/20 10:55:11;;;;;;;3.13;1.95;;;16.60;99.90;;;;;;5014562;28;20048;-85
2022/04/20 10:57:39;;;;;;;3.17;2.15;;;16.90;99.90;;;;;;5011352;28;20036;-86
2022/04/20 11:00:17;;;;;;;2.08;1.80;;;16.80;99.90;;;;;;5010932;28;20117;-86
2022/04/20 11:02:54;;;;;;;2.00;1.77;;;17.00;99.90;;;;;;5053404;28;20052;-85
2022/04/20 11:05:21;;;;;;;2.45;1.80;;;16.60;99.90;;;;;;5031600;28;20048;-85
2022/04/20 11:08:07;;;;;;;2.75;1.80;;;16.90;99.90;;;;;;5024414;28;20052;-85
2022/04/20 11:10:37;;;;;;;1.98;1.60;;;16.90;99.90;;;;;;5017552;28;20476;-85
2022/04/20 11:19:10;;;;;;;2.90;2.00;;;17.50;99.90;;;;;;5044502;28;20047;-84
2022/04/20 11:21:37;;;;;;;2.38;1.63;;;17.80;99.90;;;;;;5025408;28;20333;-85
2022/04/20 11:24:07;;;;;;;2.95;1.85;;;17.60;99.90;;;;;;5019239;28;20029;-86
2022/04/20 11:26:41;;;;;;;3.35;1.70;;;17.90;99.90;;;;;;5021707;28;20488;-86
2022/04/20 11:29:08;;;;;;;3.63;2.00;;;17.80;99.90;;;;;;5018263;28;20048;-86
2022/04/20 11:31:40;;;;;;;2.92;1.35;;;18.00;99.90;;;;;;5021925;28;20055;-86
2022/04/20 11:34:06;;;;;;;2.75;1.90;;;18.10;99.90;;;;;;5040035;28;20150;-86
2022/04/20 11:36:33;;;;;;;3.70;1.80;;;17.90;99.90;;;;;;5022274;28;20101;-85
2022/04/20 11:39:01;;;;;;;2.58;1.80;;;17.90;99.90;;;;;;5024290;28;20036;-85
2022/04/20 11:41:27;;;;;;;3.03;1.55;;;18.20;99.90;;;;;;5026288;28;20304;-85
2022/04/20 11:43:53;;;;;;;2.50;1.67;;;18.20;99.90;;;;;;5020636;28;20077;-85
2022/04/20 11:46:20;;;;;;;3.58;1.33;;;18.30;99.90;;;;;;5023024;28;20206;-86
2022/04/20 11:48:56;;;;;;;2.40;1.33;;;18.30;99.90;;;;;;5023053;28;20060;-86
2022/04/20 11:51:28;;;;;;;4.38;1.42;;;18.40;99.90;;;;;;5042454;28;20045;-85
2022/04/20 11:53:55;;;;;;;1.80;1.60;;;18.70;99.90;;;;;;5023044;28;20305;-85
2022/04/20 11:56:40;;;;;;;2.20;1.63;;;18.30;99.90;;;;;;5024906;28;20203;-86
2022/04/20 11:59:08;;;;;;;;;;;18.50;99.90;;;;;;5031535;28;20139;-85
2022/04/20 12:01:38;;;;;;;1.73;1.45;;;18.30;99.90;;;;;;5019767;28;19919;-86
2022/04/20 12:04:15;;;;;;;2.85;1.67;;;18.40;99.90;;;;;;5020307;28;20109;-86
2022/04/20 12:07:00;;;;;;;4.53;1.80;;;18.80;99.90;;;;;;5015570;28;20462;-85
2022/04/20 12:09:28;;;;;;;1.92;1.65;;;19.00;99.90;;;;;;5019683;28;20155;-85
2022/04/20 12:11:56;;;;;;;3.65;1.40;;;18.80;99.90;;;;;;5039277;28;20181;-85
2022/04/20 12:14:26;;;;;;;2.58;1.48;;;19.00;99.90;;;;;;5036673;28;20057;-87
2022/04/20 12:16:58;;;;;;;1.60;1.38;;;19.30;99.90;;;;;;5013658;28;20052;-85
2022/04/20 12:19:24;;;;;;;4.78;1.70;;;19.30;99.90;;;;;;5024353;28;20079;-85
2022/04/20 12:21:50;;;;;;;2.63;1.70;;;19.50;99.90;;;;;;5024201;28;20036;-86
2022/04/20 12:24:28;;;;;;;2.17;1.35;;;19.20;99.90;;;;;;5026227;28;20040;-86
2022/04/20 12:26:56;;;;;;;1.50;1.30;;;19.50;99.90;;;;;;5019408;28;20449;-86
2022/04/20 12:29:29;;;;;;;2.25;1.50;;;19.70;99.90;;;;;;5023199;28;20184;-85
2022/04/20 12:31:55;;;;;;;2.75;1.70;;;19.50;99.90;;;;;;5022687;28;20156;-85
2022/04/20 12:34:28;;;;;;;3.65;1.80;;;19.60;99.90;;;;;;5011404;28;20029;-85
2022/04/20 12:37:04;;;;;;;3.00;1.50;;;18.70;99.90;;;;;;5022940;28;20041;-85
2022/04/20 12:39:45;;;;;;;3.45;1.55;;;19.20;99.90;;;;;;5042599;28;20156;-85
2022/04/20 12:42:45;;;;;;;3.08;1.75;;;19.60;99.90;;;;;;5024224;28;20174;-86
2022/04/20 12:45:21;;;;;;;2.13;1.52;;;19.40;99.90;;;;;;5033158;28;20045;-86
2022/04/20 12:47:46;;;;;;;2.05;1.80;;;19.00;99.90;;;;;;5026414;28;20072;-86
2022/04/20 12:50:14;;;;;;;2.95;1.98;;;19.30;99.90;;;;;;5044070;28;20565;-86
2022/04/20 12:52:49;;;;;;;1.80;1.40;;;18.90;99.90;;;;;;5024227;28;20033;-86
2022/04/20 12:55:15;;;;;;;2.72;1.77;;;19.40;99.90;;;;;;5024202;28;20439;-87
2022/04/20 13:02:01;;;;;;;1.95;1.70;;;19.40;99.90;;;;;;5034653;28;20051;-86
2022/04/20 13:03:36;;;;;;;2.72;1.63;;;19.80;99.90;;;;;;5041940;28;20542;-86
2022/04/20 13:06:03;;;;;;;4.18;1.70;;;19.40;99.90;;;;;;5017448;28;20052;-85
2022/04/20 13:08:29;;;;;;;2.60;1.90;;;18.40;99.90;;;;;;5022429;28;20041;-86
2022/04/20 13:10:55;;;;;;;3.65;2.00;;;18.70;99.90;;;;;;5025464;28;20028;-87
2022/04/20 13:13:25;;;;;;;3.88;1.80;;;19.00;99.90;;;;;;5023019;28;20122;-85
2022/04/20 13:15:52;;;;;;;5.80;1.88;;;19.30;99.90;;;;;;5020095;28;20354;-85
2022/04/20 13:18:20;;;;;;;3.00;1.75;;;19.70;99.90;;;;;;5014173;28;20078;-86
2022/04/20 13:20:47;;;;;;;3.15;1.88;;;20.20;99.90;;;;;;4984387;28;20041;-86
2022/04/20 13:23:13;;;;;;;6.30;2.20;;;19.80;99.90;;;;;;5009541;28;20037;-86
2022/04/20 13:28:25;;;;;;;2.35;2.00;;;19.90;99.90;;;;;;5028692;28;20483;-85
2022/04/20 13:30:53;;;;;;;3.58;2.22;;;20.20;99.90;;;;;;5015470;28;20052;-85
2022/04/20 13:33:19;;;;;;;2.22;1.83;;;19.40;99.90;;;;;;5030099;28;20499;-86
2022/04/20 13:35:47;;;;;;;2.97;2.00;;;19.30;99.90;;;;;;5008427;28;20514;-87
2022/04/20 13:38:13;;;;;;;3.72;2.30;;;18.60;99.90;;;;;;5013159;28;20311;-87